Lewiston, Idaho
Current Conditions -  °F | °C
As of 7:56 PM on Thursday 27 Nov 2014 (Local Time) from KLWS Reporting Station
Clear Clear  
Wind Chill: 57°   Ceiling: Unl
Heat Index: 57°   Visibility: 10mi
Dew Point: 44°   Wind: 18mph
Humidity: 62%   Direction: 200°SSW
Pressure: 29.82"   Gusts: NA
Location:  46.42°N, 117.01°W
Report Text: KLWS 280356Z 20016KT 10SM CLR 14/07 A2982 RMK AO2 SLP100 T01390067
Loading
Personal Weather Stations






























Interactive Weather Map New forecast layout! Learn more

10-Day Weather Forecast

Advertisements
Track Severe Weather on mobile